createdAt,value
2023-04-18T00:00:06.557Z,15.90
2023-04-18T00:02:55.716Z,14.70
2023-04-18T00:05:47.911Z,14.43
2023-04-18T00:08:36.378Z,14.53
2023-04-18T00:11:24.808Z,16.53
2023-04-18T00:14:13.748Z,16.93
2023-04-18T00:17:03.841Z,15.20
2023-04-18T00:19:52.925Z,15.27
2023-04-18T00:22:42.631Z,13.90
2023-04-18T00:25:31.443Z,14.53
2023-04-18T00:28:19.907Z,15.50
2023-04-18T00:31:08.568Z,19.00
2023-04-18T00:33:58.480Z,15.50
2023-04-18T00:36:46.988Z,15.50
2023-04-18T00:39:36.442Z,16.77
2023-04-18T00:42:25.939Z,15.83
2023-04-18T00:45:14.395Z,13.77
2023-04-18T00:48:03.389Z,13.37
2023-04-18T00:50:54.284Z,17.90
2023-04-18T00:53:43.099Z,14.97
2023-04-18T00:56:31.853Z,15.20
2023-04-18T00:59:20.406Z,15.37
2023-04-18T01:02:08.959Z,18.63
2023-04-18T01:04:58.540Z,16.77
2023-04-18T01:07:48.536Z,16.93
2023-04-18T01:10:37.322Z,19.27
2023-04-18T01:13:25.855Z,17.77
2023-04-18T01:16:14.433Z,19.33
2023-04-18T01:19:03.772Z,21.00
2023-04-18T01:21:54.203Z,19.70
2023-04-18T01:24:44.064Z,23.40
2023-04-18T01:27:32.547Z,24.60
2023-04-18T01:30:21.187Z,20.33
2023-04-18T01:33:09.711Z,25.13
2023-04-18T01:35:58.221Z,19.17
2023-04-18T01:38:46.746Z,21.73
2023-04-18T01:41:36.747Z,21.90
2023-04-18T01:44:25.235Z,18.23
2023-04-18T01:47:13.785Z,17.93
2023-04-18T01:50:02.971Z,19.13
2023-04-18T01:52:51.445Z,22.90
2023-04-18T01:55:39.864Z,18.23
2023-04-18T01:58:29.702Z,22.47
2023-04-18T02:01:18.262Z,19.27
2023-04-18T02:04:06.828Z,19.70
2023-04-18T02:06:55.572Z,19.00
2023-04-18T02:09:44.131Z,21.23
2023-04-18T02:12:34.206Z,21.93
2023-04-18T02:15:24.703Z,21.90
2023-04-18T02:18:13.256Z,19.90
2023-04-18T02:21:01.976Z,19.17
2023-04-18T02:23:50.994Z,22.53
2023-04-18T02:26:39.517Z,19.53
2023-04-18T02:29:28.003Z,21.03
2023-04-18T02:32:17.823Z,22.43
2023-04-18T02:35:06.870Z,19.63
2023-04-18T02:37:55.489Z,23.70
2023-04-18T02:40:43.977Z,19.27
2023-04-18T02:43:32.401Z,19.40
2023-04-18T02:46:21.226Z,20.23
2023-04-18T02:49:11.193Z,19.70
2023-04-18T02:51:59.693Z,19.80
2023-04-18T02:54:48.124Z,20.40
2023-04-18T02:57:36.593Z,22.30
2023-04-18T03:00:25.465Z,24.13
2023-04-18T03:03:13.954Z,19.87
2023-04-18T03:06:03.805Z,22.03
2023-04-18T03:08:52.279Z,20.87
2023-04-18T03:11:40.743Z,23.80
2023-04-18T03:14:29.203Z,19.53
2023-04-18T03:17:17.756Z,20.90
2023-04-18T03:20:08.010Z,20.77
2023-04-18T03:22:57.875Z,20.63
2023-04-18T03:25:46.334Z,21.40
2023-04-18T03:28:35.104Z,22.13
2023-04-18T03:31:23.579Z,20.77
2023-04-18T03:34:12.749Z,25.10
2023-04-18T03:37:01.493Z,21.93
2023-04-18T03:39:51.250Z,19.30
2023-04-18T03:42:39.789Z,20.30
2023-04-18T03:45:28.259Z,23.83
2023-04-18T03:48:16.792Z,18.23
2023-04-18T03:51:06.899Z,18.80
2023-04-18T03:53:55.467Z,19.83
2023-04-18T03:56:45.480Z,23.60
2023-04-18T03:59:33.966Z,20.80
2023-04-18T04:02:22.508Z,21.03
2023-04-18T04:05:11.114Z,21.17
2023-04-18T04:07:59.656Z,18.70
2023-04-18T04:10:48.069Z,19.07
2023-04-18T04:13:37.885Z,20.73
2023-04-18T04:16:26.452Z,17.17
2023-04-18T04:19:15.185Z,18.33
2023-04-18T04:22:03.592Z,18.33
2023-04-18T04:24:52.123Z,18.10
2023-04-18T04:27:42.751Z,20.87
2023-04-18T04:30:33.398Z,20.57
2023-04-18T04:33:25.107Z,22.97
2023-04-18T04:36:16.131Z,22.43
2023-04-18T04:39:05.834Z,19.43
2023-04-18T04:41:54.425Z,17.83
2023-04-18T04:44:43.012Z,20.80
2023-04-18T04:47:32.958Z,20.43
2023-04-18T04:50:21.668Z,21.23
2023-04-18T04:53:11.736Z,21.53
2023-04-18T04:56:00.289Z,20.10
2023-04-18T04:58:48.730Z,19.43
2023-04-18T05:01:37.281Z,26.30
2023-04-18T05:04:27.289Z,19.47
2023-04-18T05:07:16.084Z,17.60
2023-04-18T05:10:05.077Z,18.80
2023-04-18T05:12:53.583Z,23.77
2023-04-18T05:15:42.088Z,19.10
2023-04-18T05:18:31.204Z,21.13
2023-04-18T05:21:21.869Z,20.87
2023-04-18T05:24:10.626Z,18.03
2023-04-18T05:26:59.124Z,22.10
2023-04-18T05:29:49.368Z,17.90
2023-04-18T05:32:38.986Z,18.67
2023-04-18T05:35:27.508Z,22.57
2023-04-18T05:38:17.287Z,20.00
2023-04-18T05:41:05.851Z,19.37
2023-04-18T05:44:04.962Z,18.13
2023-04-18T05:47:05.668Z,21.60
2023-04-18T05:49:54.115Z,19.50
2023-04-18T05:52:42.628Z,18.20
2023-04-18T05:55:32.501Z,18.13
2023-04-18T05:58:20.977Z,18.40
2023-04-18T06:01:09.622Z,17.33
2023-04-18T06:03:58.358Z,17.73
2023-04-18T06:06:46.969Z,18.70
2023-04-18T06:09:35.789Z,19.07
2023-04-18T06:12:25.635Z,17.73
2023-04-18T06:15:14.164Z,19.13
2023-04-18T06:18:02.710Z,20.10
2023-04-18T06:20:51.615Z,19.43
2023-04-18T06:23:40.123Z,22.03
2023-04-18T06:26:28.657Z,19.97
2023-04-18T06:29:18.991Z,17.33
2023-04-18T06:32:07.604Z,20.97
2023-04-18T06:34:56.114Z,21.30
2023-04-18T06:37:44.899Z,19.17
2023-04-18T06:40:33.361Z,23.67
2023-04-18T06:43:22.517Z,22.73
2023-04-18T06:46:12.442Z,20.07
2023-04-18T06:49:01.063Z,20.30
2023-04-18T06:51:49.586Z,20.60
2023-04-18T06:54:38.076Z,24.10
2023-04-18T06:57:26.681Z,20.53
2023-04-18T07:00:16.356Z,19.43
2023-04-18T07:03:11.302Z,16.63
2023-04-18T07:06:00.317Z,18.03
2023-04-18T07:08:48.801Z,20.07
2023-04-18T07:11:37.312Z,18.03
2023-04-18T07:14:26.290Z,22.37
2023-04-18T07:17:14.911Z,19.10
2023-04-18T07:20:05.363Z,18.23
2023-04-18T07:22:53.902Z,21.77
2023-04-18T07:25:42.390Z,18.33
2023-04-18T07:28:32.037Z,18.97
2023-04-18T07:31:20.529Z,18.90
2023-04-18T07:34:09.152Z,20.23
2023-04-18T07:36:59.358Z,22.17
2023-04-18T07:39:48.545Z,21.30
2023-04-18T07:42:38.231Z,19.40
2023-04-18T07:45:27.106Z,19.50
2023-04-18T07:48:15.626Z,19.20
2023-04-18T07:51:04.519Z,18.13
2023-04-18T07:53:54.436Z,19.20
2023-04-18T07:56:42.887Z,22.70
2023-04-18T07:59:32.397Z,18.70
2023-04-18T08:02:21.514Z,18.80
2023-04-18T08:05:10.854Z,23.07
2023-04-18T08:07:59.620Z,18.07
2023-04-18T08:10:49.485Z,20.23
2023-04-18T08:13:37.930Z,19.33
2023-04-18T08:16:26.595Z,16.53
2023-04-18T08:19:15.377Z,20.50
2023-04-18T08:22:11.102Z,21.57
2023-04-18T08:25:05.093Z,20.57
2023-04-18T08:27:55.721Z,18.10
2023-04-18T08:30:48.613Z,16.73
2023-04-18T08:33:37.111Z,17.50
2023-04-18T08:36:25.961Z,17.73
2023-04-18T08:39:14.822Z,18.13
2023-04-18T08:42:04.450Z,19.50
2023-04-18T08:44:54.329Z,21.50
2023-04-18T08:47:43.191Z,20.63
2023-04-18T08:50:32.278Z,20.40
2023-04-18T08:53:21.050Z,22.20
2023-04-18T08:56:10.501Z,19.50
2023-04-18T08:59:00.261Z,20.00
2023-04-18T09:01:56.600Z,20.73
2023-04-18T09:04:49.157Z,21.70
2023-04-18T09:07:46.852Z,23.10
2023-04-18T09:10:36.549Z,18.63
2023-04-18T09:13:39.486Z,17.80
2023-04-18T09:16:29.239Z,19.03
2023-04-18T09:19:19.206Z,19.23
2023-04-18T09:22:09.846Z,19.23
2023-04-18T09:24:59.076Z,16.90
2023-04-18T09:27:47.620Z,18.80
2023-04-18T09:30:39.523Z,18.77
2023-04-18T09:33:29.311Z,19.80
2023-04-18T09:36:20.731Z,17.30
2023-04-18T09:39:09.339Z,20.23
2023-04-18T09:42:01.315Z,18.10
2023-04-18T09:45:00.790Z,20.93
2023-04-18T09:47:49.308Z,17.70
2023-04-18T09:50:40.247Z,18.87
2023-04-18T09:53:31.257Z,16.77
2023-04-18T09:56:24.698Z,17.67
2023-04-18T09:59:13.941Z,18.40
2023-04-18T10:02:04.087Z,23.77
2023-04-18T10:04:53.459Z,21.83
2023-04-18T10:07:42.979Z,19.80
2023-04-18T10:10:33.376Z,19.20
2023-04-18T10:13:21.993Z,16.77
2023-04-18T10:16:11.038Z,20.50
2023-04-18T10:19:23.030Z,19.53
2023-04-18T10:22:12.780Z,20.80
2023-04-18T10:25:01.384Z,16.90
2023-04-18T10:28:01.231Z,19.50
2023-04-18T10:30:55.099Z,16.90
2023-04-18T10:34:03.200Z,17.30
2023-04-18T10:37:05.337Z,19.00
2023-04-18T10:39:58.365Z,16.90
2023-04-18T10:43:00.426Z,17.87
2023-04-18T10:46:27.829Z,17.50
2023-04-18T10:49:21.961Z,18.50
2023-04-18T10:52:13.402Z,18.33
2023-04-18T10:55:17.539Z,15.87
2023-04-18T10:58:07.432Z,19.40
2023-04-18T11:00:56.139Z,16.63
2023-04-18T11:03:44.986Z,17.70
2023-04-18T11:06:33.541Z,20.50
2023-04-18T11:09:22.439Z,16.03
2023-04-18T11:12:12.058Z,16.73
2023-04-18T11:15:02.644Z,15.50
2023-04-18T11:17:59.375Z,16.40
2023-04-18T11:20:49.989Z,17.83
2023-04-18T11:23:38.558Z,15.00
2023-04-18T11:26:30.725Z,15.47
2023-04-18T11:29:19.230Z,15.73
2023-04-18T11:32:09.817Z,15.63
2023-04-18T11:34:58.372Z,14.73
2023-04-18T11:37:46.871Z,16.13
2023-04-18T11:40:35.595Z,17.40
2023-04-18T11:43:25.845Z,17.73
2023-04-18T11:46:14.708Z,17.03
2023-04-18T11:49:04.730Z,16.63
2023-04-18T11:51:53.616Z,18.53
2023-04-18T11:54:43.346Z,16.60
2023-04-18T11:57:32.935Z,14.93
2023-04-18T12:00:32.448Z,16.83
2023-04-18T12:03:22.569Z,15.07
2023-04-18T12:06:12.580Z,15.20
2023-04-18T12:09:01.319Z,13.63
2023-04-18T12:12:00.951Z,14.40
2023-04-18T12:14:50.865Z,17.87
2023-04-18T12:17:39.392Z,18.47
2023-04-18T12:20:36.357Z,17.47
2023-04-18T12:23:35.322Z,16.37
2023-04-18T12:26:23.868Z,17.80
2023-04-18T12:29:12.653Z,15.40
2023-04-18T12:32:01.566Z,14.60
2023-04-18T12:34:50.248Z,16.60
2023-04-18T12:37:38.720Z,14.97
2023-04-18T12:40:29.528Z,14.00
2023-04-18T12:43:18.345Z,15.13
2023-04-18T12:46:07.009Z,13.47
2023-04-18T12:48:57.116Z,13.33
2023-04-18T12:51:45.583Z,14.57
2023-04-18T12:54:36.154Z,13.60
2023-04-18T12:57:28.633Z,11.90
2023-04-18T13:00:18.639Z,12.33
2023-04-18T13:03:12.432Z,11.83
2023-04-18T13:06:01.709Z,12.37
2023-04-18T13:08:50.348Z,12.83
2023-04-18T13:11:38.819Z,10.77
2023-04-18T13:14:28.751Z,10.63
2023-04-18T13:17:17.307Z,10.40
2023-04-18T13:20:07.096Z,9.70
2023-04-18T13:22:55.703Z,11.80
2023-04-18T13:25:44.461Z,8.47
2023-04-18T13:28:33.491Z,9.30
2023-04-18T13:31:23.340Z,8.80
2023-04-18T13:34:11.738Z,10.97
2023-04-18T13:37:00.265Z,9.17
2023-04-18T13:39:48.826Z,9.27
2023-04-18T13:42:38.055Z,8.20
2023-04-18T13:45:26.580Z,9.40
2023-04-18T13:48:16.589Z,8.70
2023-04-18T13:51:05.763Z,10.43
2023-04-18T13:53:54.344Z,9.37
2023-04-18T13:56:43.304Z,9.40
2023-04-18T13:59:32.519Z,8.63
2023-04-18T14:02:21.294Z,8.07
2023-04-18T14:05:11.558Z,9.33
2023-04-18T14:08:03.709Z,8.80
2023-04-18T14:10:52.302Z,8.93
2023-04-18T14:13:40.801Z,8.93
2023-04-18T14:16:31.760Z,9.10
2023-04-18T14:19:20.973Z,9.23
2023-04-18T14:22:11.049Z,10.97
2023-04-18T14:24:59.645Z,8.90
2023-04-18T14:27:48.974Z,8.70
2023-04-18T14:30:37.690Z,11.83
2023-04-18T14:33:26.213Z,8.60
2023-04-18T14:36:16.901Z,7.73
2023-04-18T14:39:07.021Z,8.47
2023-04-18T14:41:55.914Z,8.70
2023-04-18T14:44:44.498Z,8.00
2023-04-18T14:47:34.571Z,8.40
2023-04-18T14:50:23.368Z,9.60
2023-04-18T14:53:13.859Z,8.40
2023-04-18T14:56:03.751Z,6.80
2023-04-18T14:58:52.238Z,8.03
2023-04-18T15:01:41.477Z,8.03
2023-04-18T15:04:30.076Z,7.53
2023-04-18T15:07:18.768Z,7.70
2023-04-18T15:10:08.620Z,7.87
2023-04-18T15:12:58.527Z,6.77
2023-04-18T15:15:52.512Z,7.67
2023-04-18T15:18:41.036Z,8.50
2023-04-18T15:21:29.593Z,6.93
2023-04-18T15:24:18.187Z,7.17
2023-04-18T15:27:07.706Z,8.03
2023-04-18T15:29:57.593Z,7.10
2023-04-18T15:32:46.103Z,7.47
2023-04-18T15:35:34.662Z,8.57
2023-04-18T15:38:23.186Z,6.70
2023-04-18T15:41:11.686Z,7.77
2023-04-18T15:44:00.258Z,6.97
2023-04-18T15:46:50.923Z,7.53
2023-04-18T15:49:39.391Z,7.43
2023-04-18T15:52:27.929Z,6.33
2023-04-18T15:55:16.473Z,7.03
2023-04-18T15:58:05.018Z,6.43
2023-04-18T16:00:53.514Z,6.63
2023-04-18T16:03:43.540Z,6.80
2023-04-18T16:06:32.237Z,6.90
2023-04-18T16:09:20.729Z,6.90
2023-04-18T16:12:09.260Z,7.17
2023-04-18T16:14:57.782Z,6.80
2023-04-18T16:17:46.803Z,6.50
2023-04-18T16:20:36.746Z,7.17
2023-04-18T16:23:26.145Z,7.73
2023-04-18T16:26:14.651Z,6.80
2023-04-18T16:29:03.150Z,7.00
2023-04-18T16:31:52.475Z,6.97
2023-04-18T16:34:41.098Z,7.70
2023-04-18T16:37:31.002Z,6.70
2023-04-18T16:40:19.518Z,7.40
2023-04-18T16:43:07.977Z,7.40
2023-04-18T16:45:57.607Z,7.00
2023-04-18T16:48:46.191Z,6.87
2023-04-18T16:51:36.184Z,7.33
2023-04-18T16:54:26.163Z,7.60
2023-04-18T16:57:14.828Z,6.40
2023-04-18T17:00:05.034Z,6.47
2023-04-18T17:02:55.658Z,6.63
2023-04-18T17:05:44.571Z,6.50
2023-04-18T17:08:33.737Z,6.73
2023-04-18T17:11:23.559Z,7.07
2023-04-18T17:14:12.372Z,8.60
2023-04-18T17:17:00.913Z,7.30
2023-04-18T17:19:49.411Z,6.57
2023-04-18T17:22:38.021Z,7.70
2023-04-18T17:25:26.588Z,9.00
2023-04-18T17:28:16.578Z,7.67
2023-04-18T17:31:05.611Z,8.07
2023-04-18T17:33:54.551Z,8.20
2023-04-18T17:36:43.130Z,8.60
2023-04-18T17:39:32.287Z,9.13
2023-04-18T17:42:21.206Z,9.20
2023-04-18T17:45:11.390Z,9.40
2023-04-18T17:48:02.158Z,8.30
2023-04-18T17:50:50.728Z,8.63
2023-04-18T17:53:39.246Z,10.30
2023-04-18T17:56:28.143Z,9.77
2023-04-18T17:59:16.977Z,9.00
2023-04-18T18:02:06.917Z,8.67
2023-04-18T18:04:56.286Z,8.17
2023-04-18T18:07:50.303Z,7.47
2023-04-18T18:10:39.535Z,10.03
2023-04-18T18:13:27.995Z,9.50
2023-04-18T18:16:16.520Z,9.13
2023-04-18T18:19:07.366Z,10.50
2023-04-18T18:21:56.018Z,9.90
2023-04-18T18:24:44.560Z,8.70
2023-04-18T18:27:33.676Z,7.97
2023-04-18T18:30:22.239Z,8.50
2023-04-18T18:33:10.835Z,9.27
2023-04-18T18:36:01.327Z,9.03
2023-04-18T18:38:49.857Z,11.70
2023-04-18T18:41:38.475Z,9.23
2023-04-18T18:44:27.208Z,9.33
2023-04-18T18:47:15.654Z,8.73
2023-04-18T18:50:04.414Z,9.83
2023-04-18T18:52:54.245Z,8.83
2023-04-18T18:55:42.757Z,9.27
2023-04-18T18:58:31.293Z,9.20
2023-04-18T19:01:20.542Z,9.27
2023-04-18T19:04:09.267Z,9.30
2023-04-18T19:06:57.966Z,9.00
2023-04-18T19:09:47.877Z,10.10
2023-04-18T19:12:36.359Z,8.93
2023-04-18T19:15:25.007Z,10.03
2023-04-18T19:18:13.736Z,8.97
2023-04-18T19:21:02.261Z,10.47
2023-04-18T19:23:50.817Z,9.13
2023-04-18T19:26:40.710Z,9.30
2023-04-18T19:29:31.913Z,9.87
2023-04-18T19:32:21.822Z,9.13
2023-04-18T19:35:13.146Z,10.07
2023-04-18T19:38:02.341Z,9.97
2023-04-18T19:40:50.892Z,10.37
2023-04-18T19:43:42.482Z,11.00
2023-04-18T19:46:31.141Z,14.00
2023-04-18T19:49:19.727Z,10.03
2023-04-18T19:52:08.196Z,10.57
2023-04-18T19:54:56.656Z,10.33
2023-04-18T19:57:45.148Z,10.70
2023-04-18T20:00:35.172Z,10.23
2023-04-18T20:03:23.770Z,11.10
2023-04-18T20:06:12.355Z,12.20
2023-04-18T20:09:01.350Z,13.10
2023-04-18T20:11:49.894Z,11.63
2023-04-18T20:14:38.353Z,13.57
2023-04-18T20:17:30.505Z,13.07
2023-04-18T20:20:19.109Z,14.63
2023-04-18T20:23:07.737Z,13.37
2023-04-18T20:25:59.355Z,14.73
2023-04-18T20:28:47.870Z,14.47
2023-04-18T20:31:41.683Z,14.10
2023-04-18T20:34:32.132Z,13.40
2023-04-18T20:37:20.706Z,15.13
2023-04-18T20:40:11.248Z,17.10
2023-04-18T20:43:03.068Z,14.23
2023-04-18T20:45:51.855Z,16.60
2023-04-18T20:48:40.489Z,14.77
2023-04-18T20:51:31.768Z,15.40
2023-04-18T20:54:20.245Z,14.93
2023-04-18T20:57:09.105Z,17.33
2023-04-18T20:59:58.663Z,14.23
2023-04-18T21:02:47.292Z,14.73
2023-04-18T21:05:35.912Z,14.23
2023-04-18T21:08:25.746Z,15.00
2023-04-18T21:11:14.221Z,15.90
2023-04-18T21:14:03.754Z,14.53
2023-04-18T21:16:52.201Z,15.47
2023-04-18T21:19:40.765Z,15.90
2023-04-18T21:22:29.285Z,15.53
2023-04-18T21:25:21.142Z,16.43
2023-04-18T21:28:09.664Z,16.43
2023-04-18T21:30:58.129Z,15.80
2023-04-18T21:33:46.655Z,19.10
2023-04-18T21:36:35.224Z,17.73
2023-04-18T21:39:23.696Z,17.00
2023-04-18T21:42:13.507Z,15.60
2023-04-18T21:45:02.155Z,19.50
2023-04-18T21:47:50.832Z,16.67
2023-04-18T21:50:39.301Z,17.07
2023-04-18T21:53:27.839Z,15.03
2023-04-18T21:56:16.992Z,16.07
2023-04-18T21:59:06.880Z,16.23
2023-04-18T22:01:55.484Z,17.43
2023-04-18T22:04:44.149Z,16.63
2023-04-18T22:07:33.327Z,18.77
2023-04-18T22:10:22.920Z,17.80
2023-04-18T22:13:11.477Z,19.87
2023-04-18T22:16:03.552Z,17.43
2023-04-18T22:18:52.173Z,21.50
2023-04-18T22:21:40.667Z,19.00
2023-04-18T22:24:29.120Z,17.20
2023-04-18T22:27:17.600Z,20.17
2023-04-18T22:30:07.197Z,20.30
2023-04-18T22:32:57.170Z,22.27
2023-04-18T22:35:45.875Z,19.77
2023-04-18T22:38:34.372Z,16.37
2023-04-18T22:41:22.869Z,19.13
2023-04-18T22:44:11.344Z,19.07
2023-04-18T22:46:59.803Z,16.90
2023-04-18T22:49:49.763Z,18.47
2023-04-18T22:52:38.192Z,20.37
2023-04-18T22:55:26.665Z,20.20
2023-04-18T22:58:15.278Z,16.13
2023-04-18T23:01:03.893Z,17.10
2023-04-18T23:03:52.470Z,21.13
2023-04-18T23:06:42.392Z,20.23
2023-04-18T23:09:31.837Z,18.77
2023-04-18T23:12:20.959Z,18.50
2023-04-18T23:15:09.953Z,22.13
2023-04-18T23:17:58.453Z,18.67
2023-04-18T23:20:47.023Z,20.40
2023-04-18T23:23:36.851Z,21.00
2023-04-18T23:26:25.447Z,17.63
2023-04-18T23:29:13.960Z,19.67
2023-04-18T23:32:02.408Z,19.40
2023-04-18T23:34:51.208Z,18.50
2023-04-18T23:37:39.738Z,18.73
2023-04-18T23:40:29.566Z,19.13
2023-04-18T23:43:17.986Z,24.13
2023-04-18T23:46:06.649Z,19.47
2023-04-18T23:48:55.176Z,18.27
2023-04-18T23:51:43.694Z,17.63
2023-04-18T23:54:32.174Z,19.17
2023-04-18T23:57:22.095Z,16.80
